Time;durP1;ratioP1;P1;durP2;ratioP2;P2;SDS_P1;SDS_P2;PMS_P1;PMS_P2;Temp;Humidity;BMP_temperature;BMP_pressure;BME280_temperature;BME280_humidity;BME280_pressure;Samples;Min_cycle;Max_cycle;Signal;HPM_P1;HPM_P2
2022/03/19 00:00:22;;;;;;;10.15;4.58;;;;;;;2.73;36.94;102796.57;1703998;82;21012;-61
2022/03/19 00:02:50;;;;;;;14.07;5.65;;;;;;;2.82;36.91;102792.30;1683013;83;21269;-57
2022/03/19 00:05:18;;;;;;;11.22;5.10;;;;;;;2.92;36.75;102785.84;1686387;84;20949;-59
2022/03/19 00:07:45;;;;;;;11.38;5.50;;;;;;;2.77;36.83;102787.83;1686972;84;21111;-58
2022/03/19 00:10:14;;;;;;;10.78;5.28;;;;;;;2.50;37.17;102789.45;1687009;84;21075;-60
2022/03/19 00:12:41;;;;;;;11.73;5.00;;;;;;;2.36;37.41;102790.51;1686793;84;21020;-57
2022/03/19 00:15:10;;;;;;;11.18;5.62;;;;;;;2.44;37.38;102792.29;1686735;84;21246;-58
2022/03/19 00:17:38;;;;;;;12.23;6.25;;;;;;;2.31;37.46;102796.29;1687351;84;22424;-57
2022/03/19 00:20:07;;;;;;;12.18;5.60;;;;;;;2.30;37.47;102788.19;1687307;84;21021;-59
2022/03/19 00:22:36;;;;;;;11.65;5.92;;;;;;;2.40;37.42;102789.47;1687547;84;22157;-59
2022/03/19 00:25:05;;;;;;;12.43;5.60;;;;;;;2.48;37.22;102780.95;1686516;84;21036;-56
2022/03/19 00:27:32;;;;;;;9.38;5.45;;;;;;;2.46;37.16;102773.73;1687351;84;21234;-57
2022/03/19 00:29:59;;;;;;;12.80;6.10;;;;;;;2.41;37.16;102781.67;1686938;84;20977;-58
2022/03/19 00:32:27;;;;;;;13.65;7.03;;;;;;;2.34;37.27;102779.43;1699136;84;21622;-57
2022/03/19 00:34:54;;;;;;;11.73;5.83;;;;;;;2.17;37.47;102778.89;1691465;84;21130;-58
2022/03/19 00:37:21;;;;;;;10.10;5.47;;;;;;;2.14;37.50;102779.85;1692129;84;22242;-57
2022/03/19 00:39:49;;;;;;;12.25;6.35;;;;;;;2.17;37.53;102771.17;1692149;84;21308;-57
2022/03/19 00:42:17;;;;;;;14.78;6.58;;;;;;;2.20;37.36;102767.19;1691218;84;21119;-57
2022/03/19 00:44:45;;;;;;;17.25;7.37;;;;;;;2.19;37.28;102770.19;1691900;84;21592;-58
2022/03/19 00:47:12;;;;;;;14.23;6.65;;;;;;;2.11;37.41;102767.57;1691797;84;21035;-58
2022/03/19 00:49:40;;;;;;;13.00;6.12;;;;;;;2.00;37.75;102763.34;1692351;84;21572;-58
2022/03/19 00:52:07;;;;;;;12.78;5.80;;;;;;;1.94;37.88;102765.73;1691344;84;21266;-58
2022/03/19 00:54:35;;;;;;;12.00;5.92;;;;;;;2.03;37.90;102771.76;1692149;84;21496;-60
2022/03/19 00:57:03;;;;;;;9.63;5.40;;;;;;;1.91;38.05;102768.43;1691839;84;21409;-57
2022/03/19 00:59:31;;;;;;;11.75;5.17;;;;;;;1.94;38.00;102767.02;1692129;84;20957;-58
2022/03/19 01:02:00;;;;;;;12.55;6.20;;;;;;;2.08;37.64;102759.52;1691292;84;21001;-57
2022/03/19 01:04:29;;;;;;;13.95;6.17;;;;;;;1.97;37.71;102751.88;1665693;84;21123;-60
2022/03/19 01:06:58;;;;;;;10.55;5.45;;;;;;;1.91;37.93;102753.00;1682652;84;21548;-59
2022/03/19 01:09:27;;;;;;;11.40;6.00;;;;;;;1.98;38.03;102758.72;1681452;83;21020;-58
2022/03/19 01:11:56;;;;;;;13.43;7.22;;;;;;;1.96;38.09;102754.91;1704813;83;21543;-61
2022/03/19 01:14:25;;;;;;;11.73;6.50;;;;;;;1.93;38.08;102755.03;1683154;85;21530;-60
2022/03/19 01:16:55;;;;;;;13.05;6.10;;;;;;;2.08;37.93;102758.69;1670213;85;21034;-57
2022/03/19 01:19:52;;;;;;;14.93;5.97;;;;;;;1.93;38.17;102759.76;1704145;83;21067;-58
2022/03/19 01:21:53;;;;;;;13.58;5.60;;;;;;;1.98;38.01;102754.41;1700533;83;21029;-57
2022/03/19 01:24:20;;;;;;;10.32;6.30;;;;;;;1.98;37.95;102754.87;1682735;85;21497;-57
2022/03/19 01:26:49;;;;;;;11.63;5.83;;;;;;;2.00;37.95;102759.02;1682635;85;21083;-57
2022/03/19 01:29:17;;;;;;;10.80;5.67;;;;;;;1.88;37.98;102759.09;1674734;84;21270;-57
2022/03/19 01:31:44;;;;;;;13.13;6.90;;;;;;;1.76;38.10;102762.19;1682744;85;21099;-57
2022/03/19 01:34:12;;;;;;;13.78;6.55;;;;;;;1.75;38.22;102764.84;1682707;85;21542;-57
2022/03/19 01:36:41;;;;;;;11.75;6.40;;;;;;;1.73;38.32;102762.77;1674726;85;21001;-57
2022/03/19 01:39:08;;;;;;;10.48;6.22;;;;;;;1.56;38.55;102760.45;1682738;84;20997;-58
2022/03/19 01:41:41;;;;;;;12.07;6.25;;;;;;;0.86;39.63;102769.20;1683487;85;21269;-60
2022/03/19 01:44:09;;;;;;;13.03;6.40;;;;;;;0.34;40.40;102772.84;1674610;85;22358;-60
2022/03/19 01:47:07;;;;;;;12.88;6.08;;;;;;;0.22;40.68;102776.23;1682888;85;21592;-59
2022/03/19 01:49:35;;;;;;;14.58;6.20;;;;;;;0.17;41.05;102771.73;1698464;83;21010;-59
2022/03/19 01:52:04;;;;;;;12.47;5.97;;;;;;;0.60;39.88;102771.45;1703889;83;21103;-57
2022/03/19 01:54:35;;;;;;;14.98;6.45;;;;;;;0.42;40.42;102776.00;1705567;83;21195;-58
2022/03/19 01:57:03;;;;;;;13.30;5.95;;;;;;;0.97;40.02;102769.63;1683402;85;21019;-58
2022/03/19 01:59:36;;;;;;;12.93;5.78;;;;;;;1.10;39.71;102761.44;1682633;84;20985;-61
2022/03/19 02:02:06;;;;;;;11.50;5.37;;;;;;;0.61;39.73;102770.59;1674862;85;21083;-57
2022/03/19 02:04:34;;;;;;;14.70;6.22;;;;;;;1.21;39.54;102761.85;1685146;84;21033;-58
2022/03/19 02:07:04;;;;;;;10.78;5.60;;;;;;;1.38;39.29;102766.34;1686422;84;21059;-60
2022/03/19 02:09:32;;;;;;;11.33;5.67;;;;;;;0.68;40.61;102775.89;1686724;84;21051;-58
2022/03/19 02:12:01;;;;;;;11.93;5.62;;;;;;;0.28;40.77;102778.22;1686944;84;21438;-57
2022/03/19 02:14:28;;;;;;;12.40;5.78;;;;;;;0.30;40.70;102780.27;1692685;83;21074;-58
2022/03/19 02:16:57;;;;;;;12.18;5.53;;;;;;;0.25;40.96;102775.30;1691818;84;21572;-58
2022/03/19 02:19:25;;;;;;;13.20;7.20;;;;;;;0.34;40.79;102777.98;1691477;84;21941;-59
2022/03/19 02:21:53;;;;;;;13.18;5.95;;;;;;;0.35;40.75;102782.23;1691678;84;21011;-58
2022/03/19 02:27:08;;;;;;;13.90;6.70;;;;;;;0.42;40.50;102774.72;1691320;84;21032;-59
2022/03/19 02:29:35;;;;;;;12.18;6.00;;;;;;;1.03;40.14;102783.98;1691694;84;21008;-58
2022/03/19 02:32:07;;;;;;;10.35;5.00;;;;;;;0.14;40.96;102785.10;1691485;84;21890;-57
2022/03/19 02:34:35;;;;;;;11.83;6.03;;;;;;;0.02;41.32;102790.21;1692407;84;21004;-62
2022/03/19 02:37:03;;;;;;;18.35;6.15;;;;;;;0.06;41.16;102786.65;1691497;84;21481;-57
2022/03/19 02:39:32;;;;;;;11.95;6.28;;;;;;;0.11;40.99;102789.88;1691601;84;21070;-57
2022/03/19 02:42:01;;;;;;;15.28;6.10;;;;;;;0.06;41.05;102789.21;1692006;84;21107;-58
2022/03/19 02:44:28;;;;;;;19.05;8.03;;;;;;;-0.16;41.37;102795.95;1680528;84;21318;-58
2022/03/19 02:47:02;;;;;;;22.93;9.50;;;;;;;-0.22;41.37;102798.74;1691459;84;21137;-60
2022/03/19 02:49:29;;;;;;;19.12;9.80;;;;;;;-0.32;41.20;102790.50;1669350;84;21078;-58
2022/03/19 02:51:56;;;;;;;19.98;9.08;;;;;;;-0.44;41.04;102791.73;1691971;84;21107;-59
2022/03/19 02:54:26;;;;;;;20.52;9.73;;;;;;;-0.69;41.22;102786.99;1691840;84;21079;-58
2022/03/19 02:56:54;;;;;;;27.42;11.97;;;;;;;-0.71;41.42;102786.22;1691513;84;21145;-60
2022/03/19 02:59:28;;;;;;;20.90;10.38;;;;;;;-0.66;41.61;102790.74;1691475;84;21115;-59
2022/03/19 03:01:57;;;;;;;21.00;9.50;;;;;;;-0.57;41.91;102789.16;1692525;84;21084;-58
2022/03/19 03:04:25;;;;;;;16.60;8.23;;;;;;;-0.64;42.29;102792.83;1689609;84;21065;-57
2022/03/19 03:06:54;;;;;;;15.18;7.85;;;;;;;-0.56;42.19;102787.02;1682628;84;20953;-60
2022/03/19 03:09:23;;;;;;;18.45;8.55;;;;;;;-0.58;42.17;102785.77;1682347;85;21224;-58
2022/03/19 03:11:50;;;;;;;15.13;8.80;;;;;;;-0.59;42.19;102785.83;1683378;85;21014;-57
2022/03/19 03:14:23;;;;;;;13.72;8.13;;;;;;;-0.65;42.27;102782.16;1682375;84;20969;-58
2022/03/19 03:16:51;;;;;;;15.08;8.63;;;;;;;-0.72;42.36;102785.80;1682967;85;21506;-60
2022/03/19 03:19:18;;;;;;;15.03;7.50;;;;;;;-0.55;42.32;102786.13;1682615;84;22204;-57
2022/03/19 03:21:47;;;;;;;15.38;7.97;;;;;;;-0.61;42.27;102788.42;1683241;85;21269;-60
2022/03/19 03:24:14;;;;;;;12.43;6.58;;;;;;;-0.64;42.30;102782.58;1682951;85;21118;-57
2022/03/19 03:26:44;;;;;;;13.72;7.00;;;;;;;-0.46;41.69;102791.38;1682662;84;20989;-58
2022/03/19 03:29:11;;;;;;;13.05;6.28;;;;;;;-0.54;42.05;102794.19;1682287;84;21612;-58
2022/03/19 03:31:39;;;;;;;15.32;5.65;;;;;;;0.35;40.94;102793.78;1683171;85;21088;-58
2022/03/19 03:34:07;;;;;;;11.20;6.15;;;;;;;0.49;40.40;102800.52;1682781;84;21004;-58
2022/03/19 03:36:35;;;;;;;11.95;6.05;;;;;;;-0.17;40.82;102799.41;1683925;85;20989;-58
2022/03/19 03:39:05;;;;;;;13.70;6.53;;;;;;;0.51;40.34;102800.48;1681835;85;21017;-59
2022/03/19 03:41:32;;;;;;;14.90;7.25;;;;;;;0.61;40.16;102793.69;1682866;85;21103;-57
2022/03/19 03:44:03;;;;;;;11.85;5.78;;;;;;;0.72;40.32;102795.41;1674840;84;21074;-57
2022/03/19 03:46:32;;;;;;;11.60;5.97;;;;;;;1.03;40.30;102796.82;1668550;85;21252;-58
2022/03/19 03:48:59;;;;;;;12.10;5.40;;;;;;;1.55;39.88;102794.75;1682574;85;21075;-59
2022/03/19 03:51:28;;;;;;;13.43;6.28;;;;;;;2.14;39.21;102788.86;1681745;83;21456;-58
2022/03/19 03:53:56;;;;;;;11.05;6.17;;;;;;;2.71;38.57;102788.09;1705355;83;21119;-57
2022/03/19 03:56:23;;;;;;;12.88;6.70;;;;;;;3.41;37.53;102783.52;1683063;85;21028;-57
2022/03/19 03:58:52;;;;;;;14.05;6.40;;;;;;;3.86;37.08;102793.73;1683075;85;22575;-58
2022/03/19 04:01:20;;;;;;;10.68;5.95;;;;;;;4.28;36.31;102798.91;1684951;82;21405;-57
2022/03/19 04:03:49;;;;;;;13.20;6.97;;;;;;;4.89;35.86;102800.85;1713781;82;21316;-57
2022/03/19 04:06:17;;;;;;;12.78;6.72;;;;;;;5.50;35.14;102798.73;1712476;82;21694;-57
2022/03/19 04:08:45;;;;;;;15.78;8.08;;;;;;;6.15;34.41;102802.77;1711773;83;21177;-58
2022/03/19 04:11:13;;;;;;;15.53;8.95;;;;;;;7.00;33.86;102799.23;1713113;82;21298;-58
2022/03/19 04:13:42;;;;;;;18.17;11.08;;;;;;;7.60;33.42;102791.48;1712531;82;21047;-57
2022/03/19 04:16:10;;;;;;;16.70;8.85;;;;;;;8.19;32.62;102795.27;1712741;82;20979;-58
2022/03/19 04:18:38;;;;;;;19.27;8.75;;;;;;;8.53;31.54;102798.17;1713742;82;21605;-59
2022/03/19 04:21:05;;;;;;;16.77;9.30;;;;;;;8.96;30.69;102797.25;1712599;82;21087;-58
2022/03/19 04:23:33;;;;;;;16.37;9.50;;;;;;;9.30;30.18;102800.48;1713170;82;21792;-59
2022/03/19 04:26:02;;;;;;;12.43;7.85;;;;;;;9.59;29.67;102800.95;1702052;82;21134;-57
2022/03/19 04:28:30;;;;;;;12.63;7.95;;;;;;;10.04;29.11;102799.71;1695583;82;21063;-58
2022/03/19 04:30:59;;;;;;;13.62;7.87;;;;;;;10.34;28.71;102807.84;1713082;82;21102;-59
2022/03/19 04:33:28;;;;;;;18.80;9.20;;;;;;;10.60;28.40;102812.78;1701336;82;21063;-58
2022/03/19 04:38:44;;;;;;;21.45;11.57;;;;;;;11.29;27.54;102810.73;1713022;82;21552;-57
2022/03/19 04:41:13;;;;;;;27.58;14.90;;;;;;;11.56;27.19;102806.33;1712772;82;21142;-61
2022/03/19 04:43:41;;;;;;;20.97;13.00;;;;;;;11.84;26.83;102814.02;1713516;82;21090;-58
2022/03/19 04:46:10;;;;;;;18.85;10.82;;;;;;;12.00;26.13;102820.57;1713115;82;21059;-58
2022/03/19 04:48:37;;;;;;;15.93;9.75;;;;;;;12.19;25.83;102824.59;1712125;82;21261;-58
2022/03/19 04:51:05;;;;;;;11.35;7.72;;;;;;;12.33;25.39;102824.72;1694909;82;21161;-59
2022/03/19 04:53:32;;;;;;;19.45;8.88;;;;;;;12.44;25.37;102822.50;1713353;82;20940;-59
2022/03/19 04:56:01;;;;;;;13.32;8.05;;;;;;;12.46;24.98;102824.48;1712357;82;21003;-58
2022/03/19 04:58:29;;;;;;;13.98;8.20;;;;;;;12.42;24.69;102826.54;1712245;82;21000;-57
2022/03/19 05:00:59;;;;;;;11.55;7.17;;;;;;;12.10;24.64;102820.16;1705933;82;21861;-61
2022/03/19 05:03:27;;;;;;;11.75;7.45;;;;;;;11.96;25.07;102817.87;1665783;85;21011;-59
2022/03/19 05:05:56;;;;;;;12.07;7.05;;;;;;;12.04;24.76;102820.66;1676705;85;21066;-57
2022/03/19 05:08:24;;;;;;;13.65;8.58;;;;;;;12.05;24.70;102822.34;1675867;85;21067;-61
2022/03/19 05:13:44;;;;;;;13.40;7.75;;;;;;;11.05;25.12;102827.05;1676639;85;21266;-58
2022/03/19 05:16:18;;;;;;;11.43;7.42;;;;;;;10.35;25.54;102841.27;1675937;85;21030;-57
2022/03/19 05:18:46;;;;;;;15.05;7.85;;;;;;;9.70;26.10;102843.48;1676468;85;21074;-58
2022/03/19 05:21:15;;;;;;;12.07;7.50;;;;;;;8.60;27.36;102852.70;1665466;84;21054;-57
2022/03/19 05:23:45;;;;;;;10.75;7.33;;;;;;;8.27;27.81;102863.60;1676489;84;21349;-58
2022/03/19 05:26:14;;;;;;;16.52;9.08;;;;;;;7.80;28.21;102859.36;1675994;84;21018;-58
2022/03/19 05:28:43;;;;;;;12.78;8.18;;;;;;;7.59;29.31;102862.05;1675856;84;20995;-58
2022/03/19 05:31:12;;;;;;;12.60;8.20;;;;;;;7.59;29.75;102867.70;1676414;84;21058;-58
2022/03/19 05:36:28;;;;;;;13.45;7.17;;;;;;;7.93;29.22;102861.96;1674648;84;21074;-58
2022/03/19 05:38:56;;;;;;;12.00;7.08;;;;;;;7.77;29.31;102856.13;1676355;84;21963;-58
2022/03/19 05:41:23;;;;;;;12.85;6.20;;;;;;;7.70;29.57;102861.34;1676197;84;21635;-60
2022/03/19 05:43:51;;;;;;;13.03;7.95;;;;;;;7.49;29.67;102859.66;1676457;84;21110;-58
2022/03/19 05:46:21;;;;;;;12.80;7.58;;;;;;;7.50;30.07;102860.02;1675976;84;21639;-58
2022/03/19 05:48:48;;;;;;;14.05;6.65;;;;;;;7.70;30.08;102862.17;1676546;84;21008;-57
2022/03/19 05:51:15;;;;;;;14.00;7.87;;;;;;;7.82;29.92;102857.94;1657630;84;21152;-58
2022/03/19 05:53:44;;;;;;;11.20;6.70;;;;;;;7.80;29.46;102860.66;1675656;84;21540;-58
2022/03/19 05:56:13;;;;;;;11.73;6.85;;;;;;;7.62;29.87;102867.05;1675680;84;20952;-58
2022/03/19 05:58:42;;;;;;;10.28;6.12;;;;;;;7.67;30.19;102864.14;1676579;84;21110;-58
2022/03/19 06:01:09;;;;;;;12.88;7.67;;;;;;;7.83;29.87;102858.77;1681225;82;21123;-60
2022/03/19 06:03:36;;;;;;;9.85;6.87;;;;;;;7.82;29.76;102859.71;1711279;82;21233;-57
2022/03/19 06:06:04;;;;;;;12.63;7.08;;;;;;;7.76;30.18;102851.84;1713585;82;21090;-60
2022/03/19 06:08:33;;;;;;;12.80;6.42;;;;;;;7.85;30.15;102853.85;1712847;82;21062;-58
2022/03/19 06:11:00;;;;;;;12.03;6.78;;;;;;;8.15;30.25;102857.47;1712799;82;21063;-57
2022/03/19 06:13:29;;;;;;;9.98;6.37;;;;;;;8.47;30.23;102854.00;1709229;82;20937;-59
2022/03/19 06:15:57;;;;;;;11.43;7.05;;;;;;;9.15;29.74;102847.97;1708777;82;21659;-62
2022/03/19 06:18:26;;;;;;;11.48;7.40;;;;;;;9.45;28.63;102847.53;1702509;82;21094;-59
2022/03/19 06:20:53;;;;;;;9.65;6.05;;;;;;;9.63;28.95;102831.86;1704035;82;21135;-58
2022/03/19 06:23:21;;;;;;;9.08;6.10;;;;;;;10.14;27.92;102830.66;1700684;82;21119;-59
2022/03/19 06:25:47;;;;;;;12.25;6.65;;;;;;;10.70;27.43;102817.64;1704776;82;21086;-59
2022/03/19 06:28:15;;;;;;;9.93;6.03;;;;;;;11.55;26.68;102822.10;1701680;82;22290;-61
2022/03/19 06:30:43;;;;;;;10.55;6.45;;;;;;;12.13;25.55;102821.20;1704627;81;21115;-58
2022/03/19 06:33:15;;;;;;;11.30;5.72;;;;;;;12.46;25.25;102821.88;1703547;82;21078;-63
2022/03/19 06:38:29;;;;;;;9.20;6.58;;;;;;;12.96;23.88;102821.39;1701394;82;21174;-59
2022/03/19 06:41:01;;;;;;;9.60;6.25;;;;;;;12.35;24.24;102818.41;1715104;82;21901;-62
2022/03/19 06:43:28;;;;;;;9.45;5.80;;;;;;;12.56;24.36;102812.27;1702074;82;21305;-59
2022/03/19 06:45:57;;;;;;;9.23;5.80;;;;;;;12.49;24.00;102819.00;1709385;82;21062;-62
2022/03/19 06:48:25;;;;;;;11.57;6.00;;;;;;;12.45;23.74;102816.30;1710012;82;21136;-59
2022/03/19 06:50:56;;;;;;;7.93;5.00;;;;;;;12.42;24.29;102817.38;1712213;82;21296;-61
2022/03/19 06:53:23;;;;;;;9.07;5.67;;;;;;;12.71;24.13;102810.94;1712979;82;22662;-58
2022/03/19 06:55:51;;;;;;;10.40;6.10;;;;;;;13.06;23.96;102805.68;1713198;82;21216;-62
2022/03/19 06:58:23;;;;;;;10.53;5.93;;;;;;;13.35;23.80;102805.23;1712722;82;21195;-59
2022/03/19 07:00:48;;;;;;;8.47;5.53;;;;;;;13.81;23.26;102807.58;1706647;81;21888;-60
2022/03/19 07:03:15;;;;;;;10.77;5.87;;;;;;;13.89;22.74;102804.25;1714235;82;21271;-60
2022/03/19 07:05:43;;;;;;;10.73;6.27;;;;;;;14.00;22.52;102814.56;1709352;81;21340;-63
2022/03/19 07:08:12;;;;;;;10.23;5.90;;;;;;;14.04;22.56;102816.42;1712078;82;21301;-59
2022/03/19 07:10:40;;;;;;;8.70;5.70;;;;;;;14.26;22.60;102817.86;1713472;81;21204;-63
2022/03/19 07:13:07;;;;;;;7.50;5.33;;;;;;;14.46;22.10;102819.91;1711925;82;21845;-59
2022/03/19 07:15:37;;;;;;;9.57;5.70;;;;;;;14.22;21.63;102817.81;1710093;81;21435;-59
2022/03/19 07:18:04;;;;;;;9.57;6.40;;;;;;;13.90;22.13;102813.76;1711986;82;21375;-60
2022/03/19 07:20:31;;;;;;;14.37;6.17;;;;;;;13.84;22.05;102813.86;1712901;82;21365;-64
2022/03/19 07:23:03;;;;;;;8.93;5.20;;;;;;;13.82;22.40;102813.16;1713703;82;21584;-61
2022/03/19 07:25:33;;;;;;;8.60;5.20;;;;;;;14.16;22.33;102803.95;1703389;82;21221;-60
2022/03/19 07:28:03;;;;;;;7.20;4.80;;;;;;;14.70;21.63;102797.92;1713458;82;21908;-59
2022/03/19 07:30:30;;;;;;;7.53;4.73;;;;;;;13.87;21.53;102803.09;1701727;81;21342;-63
2022/03/19 07:32:58;;;;;;;6.67;4.80;;;;;;;13.61;21.49;102795.49;1706675;81;21189;-59
2022/03/19 07:35:25;;;;;;;10.10;4.80;;;;;;;13.39;21.29;102809.23;1713249;82;21333;-58
2022/03/19 07:37:53;;;;;;;11.47;6.57;;;;;;;13.13;21.77;102809.41;1712260;82;21380;-59
2022/03/19 07:43:08;;;;;;;40.90;25.27;;;;;;;15.13;21.32;102797.67;1711639;83;22298;-59
2022/03/19 07:45:36;;;;;;;9.13;5.20;;;;;;;16.04;20.10;102796.03;1712853;82;21181;-59
2022/03/19 07:48:06;;;;;;;17.40;4.80;;;;;;;16.04;20.10;102796.03;1713180;82;21298;-59
2022/03/19 07:50:33;;;;;;;10.13;4.80;;;;;;;15.78;19.84;102794.73;1707107;81;21443;-63
2022/03/19 07:53:01;;;;;;;6.57;3.93;;;;;;;15.78;19.84;102871.00;1703179;82;22250;-60
2022/03/19 07:55:28;;;;;;;5.53;3.30;;;;;;;15.30;19.03;102794.22;1707766;82;21766;-62
2022/03/19 07:57:55;;;;;;;7.67;3.97;;;;;;;14.98;18.28;102793.92;1708077;82;21616;-60
2022/03/19 08:00:23;;;;;;;6.57;3.73;;;;;;;14.57;18.47;102781.69;1711994;82;21429;-62
2022/03/19 08:02:51;;;;;;;5.83;3.67;;;;;;;14.54;18.87;102801.66;1694147;82;21935;-61
2022/03/19 08:05:18;;;;;;;7.70;4.87;;;;;;;14.40;19.17;102795.09;1676024;84;21774;-64
2022/03/19 08:07:47;;;;;;;6.37;3.87;;;;;;;14.28;19.60;102791.84;1669404;83;21299;-58
2022/03/19 08:10:15;;;;;;;5.00;2.77;;;;;;;14.35;18.12;102795.99;1665519;84;21271;-61
2022/03/19 08:12:43;;;;;;;5.37;2.50;;;;;;;14.32;18.11;102798.44;1668507;85;21282;-58
2022/03/19 08:17:48;;;;;;;4.87;2.43;;;;;;;14.15;18.23;102801.00;1676640;85;21334;-59
2022/03/19 08:20:15;;;;;;;5.90;3.17;;;;;;;14.19;17.73;102799.25;1680141;84;21303;-60
2022/03/19 08:22:42;;;;;;;6.20;2.70;;;;;;;13.92;17.85;102803.14;1676503;85;21177;-58
2022/03/19 08:25:10;;;;;;;7.17;2.77;;;;;;;13.74;18.03;102796.00;1676644;85;21310;-62
2022/03/19 08:27:38;;;;;;;5.80;2.97;;;;;;;13.84;17.53;102799.44;1676599;85;21895;-58
2022/03/19 08:30:07;;;;;;;4.73;2.13;;;;;;;13.57;18.17;102788.39;1676768;85;21915;-59
2022/03/19 08:32:35;;;;;;;5.70;2.90;;;;;;;13.54;18.44;102789.98;1676052;85;21252;-59
2022/03/19 08:35:03;;;;;;;5.67;2.95;;;;;;;13.27;18.33;102798.56;1676795;85;22351;-58
2022/03/19 08:37:32;;;;;;;7.10;2.90;;;;;;;13.43;18.26;102792.75;1659092;83;21093;-59
2022/03/19 08:40:18;;;;;;;7.00;2.52;;;;;;;13.22;18.38;102791.58;1651774;84;21561;-60
2022/03/19 08:42:51;;;;;;;4.95;2.52;;;;;;;13.12;18.22;102796.80;1669638;84;21507;-64
2022/03/19 08:45:20;;;;;;;7.60;2.45;;;;;;;12.96;18.03;102811.41;1676023;85;21245;-60
2022/03/19 08:47:49;;;;;;;6.15;2.30;;;;;;;12.84;18.43;102799.75;1676507;85;21055;-61
2022/03/19 08:50:17;;;;;;;6.15;2.55;;;;;;;13.14;17.92;102793.58;1678599;83;21036;-59
2022/03/19 08:52:44;;;;;;;5.95;2.72;;;;;;;13.02;18.46;102776.32;1679527;84;21122;-61
2022/03/19 08:55:12;;;;;;;4.25;2.00;;;;;;;13.20;18.37;102784.33;1676368;85;21018;-59
2022/03/19 08:57:39;;;;;;;4.47;1.77;;;;;;;13.39;17.89;102780.41;1676917;85;21233;-58
2022/03/19 09:00:09;;;;;;;8.73;1.70;;;;;;;13.38;17.17;102764.36;1676933;85;21481;-62
2022/03/19 09:02:38;;;;;;;4.35;1.90;;;;;;;14.25;16.55;102770.31;1675821;83;21047;-59
2022/03/19 09:05:06;;;;;;;3.55;1.70;;;;;;;15.19;16.19;102770.80;1676268;85;21008;-59
2022/03/19 09:07:34;;;;;;;4.30;1.77;;;;;;;15.86;15.82;102768.47;1676728;85;21592;-59
2022/03/19 09:10:01;;;;;;;4.90;1.80;;;;;;;16.13;15.63;102762.18;1676562;85;21318;-59
2022/03/19 09:12:30;;;;;;;6.65;2.20;;;;;;;14.57;16.34;102763.31;1675766;85;21030;-61
2022/03/19 09:14:59;;;;;;;4.35;2.12;;;;;;;14.23;16.25;102770.44;1676319;85;20967;-58
2022/03/19 09:17:27;;;;;;;4.10;2.02;;;;;;;14.17;16.25;102762.31;1666020;85;21058;-58
2022/03/19 09:19:56;;;;;;;5.45;2.10;;;;;;;14.24;16.54;102773.88;1676505;85;20995;-59
2022/03/19 09:22:23;;;;;;;4.30;1.87;;;;;;;14.30;16.69;102772.00;1664136;83;22258;-59
2022/03/19 09:24:51;;;;;;;4.67;2.62;;;;;;;14.07;17.09;102765.00;1672935;84;21479;-61
2022/03/19 09:27:18;;;;;;;6.00;2.15;;;;;;;14.04;16.83;102768.72;1676570;84;21127;-60
2022/03/19 09:29:46;;;;;;;4.72;2.25;;;;;;;14.00;16.74;102770.47;1666777;84;21524;-59
2022/03/19 09:32:13;;;;;;;4.97;2.30;;;;;;;13.87;16.93;102772.12;1672757;84;21533;-59
2022/03/19 09:34:43;;;;;;;4.40;2.08;;;;;;;13.86;16.96;102769.13;1669341;84;21360;-63
2022/03/19 09:37:11;;;;;;;6.05;3.05;;;;;;;13.64;16.75;102771.63;1665398;83;21075;-58
2022/03/19 09:39:38;;;;;;;5.22;2.67;;;;;;;13.25;17.29;102774.28;1674415;84;20937;-59
2022/03/19 09:42:05;;;;;;;6.60;2.27;;;;;;;13.33;17.40;102774.89;1668569;84;20983;-62
2022/03/19 09:44:32;;;;;;;3.87;1.90;;;;;;;13.48;16.74;102783.98;1680801;83;21089;-59
2022/03/19 09:47:00;;;;;;;4.17;2.20;;;;;;;13.50;16.97;102781.23;1676047;84;21968;-60
2022/03/19 09:49:27;;;;;;;4.83;2.30;;;;;;;13.48;16.84;102767.44;1670245;84;21062;-59
2022/03/19 09:51:55;;;;;;;5.50;2.58;;;;;;;13.48;17.23;102767.44;1676644;85;21086;-63
2022/03/19 09:54:22;;;;;;;5.37;2.80;;;;;;;13.49;17.61;102777.80;1676199;85;21062;-64
2022/03/19 09:56:50;;;;;;;5.37;3.15;;;;;;;13.07;17.50;102764.16;1676535;85;20924;-59
2022/03/19 09:59:22;;;;;;;5.92;2.40;;;;;;;13.45;17.30;102749.37;1676585;85;21324;-57
2022/03/19 10:01:49;;;;;;;5.15;2.45;;;;;;;13.37;17.19;102746.99;1676437;85;21612;-63
2022/03/19 10:04:19;;;;;;;4.10;2.10;;;;;;;13.37;17.26;102741.75;1706917;82;21012;-60
2022/03/19 10:09:47;;;;;;;4.10;2.20;;;;;;;13.36;17.25;102745.80;1704679;82;21522;-63
2022/03/19 10:12:21;;;;;;;4.70;2.42;;;;;;;13.50;17.39;102752.41;1712692;82;21297;-59
2022/03/19 10:14:56;;;;;;;3.52;1.82;;;;;;;13.78;17.59;102758.53;1710415;82;21106;-59
2022/03/19 10:17:31;;;;;;;3.27;1.62;;;;;;;13.79;17.46;102757.10;1708149;82;21466;-60
2022/03/19 10:20:10;;;;;;;4.20;2.60;;;;;;;13.76;16.55;102749.52;1712499;82;21616;-60
2022/03/19 10:22:44;;;;;;;11.57;3.90;;;;;;;13.55;16.92;102754.11;1709008;82;21245;-60
2022/03/19 10:25:17;;;;;;;3.50;1.40;;;;;;;13.91;17.13;102741.19;1713503;82;21388;-64
2022/03/19 10:27:44;;;;;;;;;;;;;;;14.21;16.13;102746.65;1716896;82;21509;-61
2022/03/19 10:30:16;;;;;;;7.92;2.87;;;;;;;14.24;16.02;102755.03;1713402;82;20443;-59
2022/03/19 10:32:51;;;;;;;4.30;2.12;;;;;;;14.26;16.21;102745.72;1713215;82;21188;-60
2022/03/19 10:35:33;;;;;;;7.87;2.00;;;;;;;14.40;16.23;102747.86;1712412;82;21123;-60
2022/03/19 10:38:05;;;;;;;6.35;1.80;;;;;;;14.28;15.79;102742.45;1697729;82;22084;-61
2022/03/19 10:40:37;;;;;;;;;;;;;;;13.99;15.96;102738.18;1672519;83;21486;-66
2022/03/19 10:43:05;;;;;;;;;;;;;;;13.82;16.33;102742.37;1678334;85;20225;-61
2022/03/19 10:45:32;;;;;;;4.90;2.00;;;;;;;13.77;16.45;102734.61;1654689;85;20237;-60
2022/03/19 10:48:02;;;;;;;3.80;1.47;;;;;;;13.94;16.35;102740.88;1678855;84;21054;-61
2022/03/19 10:50:29;;;;;;;6.22;1.65;;;;;;;14.28;15.65;102734.57;1654342;85;22145;-64
2022/03/19 10:52:57;;;;;;;5.75;1.98;;;;;;;14.43;15.31;102729.66;1663299;85;20956;-61
2022/03/19 10:55:25;;;;;;;3.75;1.47;;;;;;;14.48;15.33;102741.87;1682523;84;22407;-60
2022/03/19 10:57:53;;;;;;;6.03;1.77;;;;;;;14.65;15.22;102733.69;1678566;84;21099;-61
2022/03/19 11:00:20;;;;;;;3.58;1.55;;;;;;;14.53;15.35;102738.33;1678899;84;21085;-60
2022/03/19 11:02:48;;;;;;;3.90;1.40;;;;;;;14.51;14.93;102737.67;1647486;86;21284;-64
2022/03/19 11:05:17;;;;;;;5.33;2.05;;;;;;;14.05;14.80;102736.30;1688126;82;22681;-60
2022/03/19 11:07:46;;;;;;;3.22;1.40;;;;;;;13.67;14.83;102727.25;1671805;85;21537;-60
2022/03/19 11:10:14;;;;;;;2.83;1.32;;;;;;;13.48;15.37;102746.47;1689419;82;20951;-61
2022/03/19 11:12:50;;;;;;;4.90;1.65;;;;;;;13.32;15.36;102740.50;1671814;82;21589;-62
2022/03/19 11:15:18;;;;;;;4.08;2.10;;;;;;;13.36;15.95;102736.15;1664239;82;21065;-60
2022/03/19 11:17:49;;;;;;;3.62;1.77;;;;;;;13.62;16.01;102736.38;1637030;84;27738;-59
2022/03/19 11:20:16;;;;;;;4.00;2.10;;;;;;;13.71;15.61;102737.30;1677509;82;21497;-60
2022/03/19 11:22:54;;;;;;;4.70;2.20;;;;;;;13.46;15.73;102736.63;1653981;84;21019;-59
2022/03/19 11:25:32;;;;;;;3.70;1.80;;;;;;;13.45;15.94;102729.72;1679762;83;21089;-59
2022/03/19 11:28:09;;;;;;;4.50;1.95;;;;;;;13.41;16.19;102727.04;1682539;83;21216;-64
2022/03/19 11:30:54;;;;;;;5.50;2.90;;;;;;;13.04;16.67;102722.53;1678626;82;21839;-60
2022/03/19 11:33:25;;;;;;;5.70;2.65;;;;;;;13.22;17.02;102718.24;1664825;83;21026;-59
2022/03/19 11:36:07;;;;;;;5.03;2.40;;;;;;;13.42;17.11;102722.16;1676010;83;21083;-60
2022/03/19 11:38:42;;;;;;;3.50;1.55;;;;;;;13.93;16.58;102716.95;1687965;82;21043;-61
2022/03/19 11:41:25;;;;;;;4.60;1.90;;;;;;;13.96;16.20;102712.73;1687468;82;21254;-64
2022/03/19 11:44:20;;;;;;;6.28;2.22;;;;;;;13.76;15.95;102711.50;1687336;83;21113;-61
2022/03/19 11:47:06;;;;;;;7.20;3.15;;;;;;;13.41;16.35;102714.79;1686472;83;21075;-63
2022/03/19 11:49:49;;;;;;;7.17;3.33;;;;;;;13.27;16.35;102704.26;1668787;84;21036;-62
2022/03/19 11:52:26;;;;;;;4.37;2.35;;;;;;;13.05;16.47;102716.31;1688064;82;21083;-64
2022/03/19 11:55:04;;;;;;;6.00;2.35;;;;;;;13.12;16.89;102722.66;1669634;84;21329;-60